sensor_id;sensor_type;location;lat;lon;timestamp;P1;durP1;ratioP1;P2;durP2;ratioP2
211;SDS011;16228;48.800;9.002;2022-11-04T00:00:14;1.50;;;1.40;;
211;SDS011;16228;48.800;9.002;2022-11-04T00:02:41;1.80;;;1.20;;
211;SDS011;16228;48.800;9.002;2022-11-04T00:05:08;1.30;;;1.20;;
211;SDS011;16228;48.800;9.002;2022-11-04T00:07:35;3.70;;;1.50;;
211;SDS011;16228;48.800;9.002;2022-11-04T00:10:36;1.93;;;1.40;;
211;SDS011;16228;48.800;9.002;2022-11-04T00:13:20;1.40;;;1.30;;
211;SDS011;16228;48.800;9.002;2022-11-04T00:15:47;1.53;;;1.43;;
211;SDS011;16228;48.800;9.002;2022-11-04T00:18:32;1.60;;;1.50;;
211;SDS011;16228;48.800;9.002;2022-11-04T00:21:01;1.67;;;1.20;;
211;SDS011;16228;48.800;9.002;2022-11-04T00:23:45;1.40;;;1.20;;
211;SDS011;16228;48.800;9.002;2022-11-04T00:26:31;2.30;;;1.37;;
211;SDS011;16228;48.800;9.002;2022-11-04T00:29:15;1.50;;;1.37;;
211;SDS011;16228;48.800;9.002;2022-11-04T00:31:42;1.70;;;1.10;;
211;SDS011;16228;48.800;9.002;2022-11-04T00:34:26;1.30;;;1.20;;
211;SDS011;16228;48.800;9.002;2022-11-04T00:36:53;1.40;;;1.30;;
211;SDS011;16228;48.800;9.002;2022-11-04T00:39:20;1.37;;;1.23;;
211;SDS011;16228;48.800;9.002;2022-11-04T00:41:48;2.13;;;1.30;;
211;SDS011;16228;48.800;9.002;2022-11-04T00:44:15;2.00;;;1.57;;
211;SDS011;16228;48.800;9.002;2022-11-04T00:46:42;3.03;;;1.87;;
211;SDS011;16228;48.800;9.002;2022-11-04T00:49:09;1.57;;;1.43;;
211;SDS011;16228;48.800;9.002;2022-11-04T00:51:37;1.43;;;1.20;;
211;SDS011;16228;48.800;9.002;2022-11-04T00:54:04;2.73;;;1.50;;
211;SDS011;16228;48.800;9.002;2022-11-04T00:56:31;1.83;;;1.30;;
211;SDS011;16228;48.800;9.002;2022-11-04T00:58:59;2.07;;;1.40;;
211;SDS011;16228;48.800;9.002;2022-11-04T01:01:27;1.77;;;1.30;;
211;SDS011;16228;48.800;9.002;2022-11-04T01:03:54;1.70;;;1.60;;
211;SDS011;16228;48.800;9.002;2022-11-04T01:06:22;3.03;;;1.77;;
211;SDS011;16228;48.800;9.002;2022-11-04T01:08:53;2.00;;;1.43;;
211;SDS011;16228;48.800;9.002;2022-11-04T01:11:21;1.77;;;1.67;;
211;SDS011;16228;48.800;9.002;2022-11-04T01:13:48;1.87;;;1.60;;
211;SDS011;16228;48.800;9.002;2022-11-04T01:16:17;1.97;;;1.30;;
211;SDS011;16228;48.800;9.002;2022-11-04T01:18:45;2.33;;;1.50;;
211;SDS011;16228;48.800;9.002;2022-11-04T01:21:13;1.97;;;1.30;;
211;SDS011;16228;48.800;9.002;2022-11-04T01:23:43;1.93;;;1.60;;
211;SDS011;16228;48.800;9.002;2022-11-04T01:26:11;1.50;;;1.40;;
211;SDS011;16228;48.800;9.002;2022-11-04T01:28:40;1.07;;;0.97;;
211;SDS011;16228;48.800;9.002;2022-11-04T01:31:07;1.50;;;1.40;;
211;SDS011;16228;48.800;9.002;2022-11-04T01:33:36;2.23;;;1.40;;
211;SDS011;16228;48.800;9.002;2022-11-04T01:36:04;1.10;;;1.10;;
211;SDS011;16228;48.800;9.002;2022-11-04T01:38:32;1.50;;;1.40;;
211;SDS011;16228;48.800;9.002;2022-11-04T01:41:00;1.13;;;1.03;;
211;SDS011;16228;48.800;9.002;2022-11-04T01:43:41;1.63;;;1.30;;
211;SDS011;16228;48.800;9.002;2022-11-04T01:46:10;1.33;;;1.23;;
211;SDS011;16228;48.800;9.002;2022-11-04T01:48:45;1.60;;;1.50;;
211;SDS011;16228;48.800;9.002;2022-11-04T01:51:12;1.30;;;1.20;;
211;SDS011;16228;48.800;9.002;2022-11-04T01:53:40;1.27;;;1.17;;
211;SDS011;16228;48.800;9.002;2022-11-04T01:56:10;1.40;;;1.27;;
211;SDS011;16228;48.800;9.002;2022-11-04T01:58:40;1.53;;;1.20;;
211;SDS011;16228;48.800;9.002;2022-11-04T02:01:11;1.17;;;1.07;;
211;SDS011;16228;48.800;9.002;2022-11-04T02:03:40;1.87;;;1.17;;
211;SDS011;16228;48.800;9.002;2022-11-04T02:06:13;1.07;;;1.03;;
211;SDS011;16228;48.800;9.002;2022-11-04T02:08:42;1.13;;;1.03;;
211;SDS011;16228;48.800;9.002;2022-11-04T02:11:09;2.17;;;0.97;;
211;SDS011;16228;48.800;9.002;2022-11-04T02:13:56;1.70;;;1.10;;
211;SDS011;16228;48.800;9.002;2022-11-04T02:16:24;1.17;;;1.07;;
211;SDS011;16228;48.800;9.002;2022-11-04T02:19:04;0.90;;;0.90;;
211;SDS011;16228;48.800;9.002;2022-11-04T02:24:46;2.10;;;1.10;;
211;SDS011;16228;48.800;9.002;2022-11-04T02:27:32;1.77;;;1.10;;
211;SDS011;16228;48.800;9.002;2022-11-04T02:30:11;2.07;;;0.97;;
211;SDS011;16228;48.800;9.002;2022-11-04T02:32:50;1.10;;;0.83;;
211;SDS011;16228;48.800;9.002;2022-11-04T02:35:30;1.33;;;1.10;;
211;SDS011;16228;48.800;9.002;2022-11-04T02:38:10;3.70;;;0.77;;
211;SDS011;16228;48.800;9.002;2022-11-04T02:40:44;1.30;;;0.83;;
211;SDS011;16228;48.800;9.002;2022-11-04T02:43:20;0.90;;;0.90;;
211;SDS011;16228;48.800;9.002;2022-11-04T02:45:52;1.10;;;0.90;;
211;SDS011;16228;48.800;9.002;2022-11-04T02:48:28;3.83;;;1.10;;
211;SDS011;16228;48.800;9.002;2022-11-04T02:51:02;0.90;;;0.73;;
211;SDS011;16228;48.800;9.002;2022-11-04T02:53:34;1.00;;;0.90;;
211;SDS011;16228;48.800;9.002;2022-11-04T02:56:05;2.43;;;1.97;;
211;SDS011;16228;48.800;9.002;2022-11-04T02:58:34;1.13;;;0.90;;
211;SDS011;16228;48.800;9.002;2022-11-04T03:01:05;0.93;;;0.80;;
211;SDS011;16228;48.800;9.002;2022-11-04T03:03:34;3.63;;;1.10;;
211;SDS011;16228;48.800;9.002;2022-11-04T03:06:06;3.03;;;0.90;;
211;SDS011;16228;48.800;9.002;2022-11-04T03:08:35;1.10;;;0.90;;
211;SDS011;16228;48.800;9.002;2022-11-04T03:11:06;0.90;;;0.77;;
211;SDS011;16228;48.800;9.002;2022-11-04T03:13:38;1.57;;;0.80;;
211;SDS011;16228;48.800;9.002;2022-11-04T03:16:10;1.60;;;1.00;;
211;SDS011;16228;48.800;9.002;2022-11-04T03:18:41;1.47;;;1.00;;
211;SDS011;16228;48.800;9.002;2022-11-04T03:21:14;1.90;;;0.83;;
211;SDS011;16228;48.800;9.002;2022-11-04T03:23:42;2.37;;;0.90;;
211;SDS011;16228;48.800;9.002;2022-11-04T03:26:10;1.27;;;1.17;;
211;SDS011;16228;48.800;9.002;2022-11-04T03:28:44;1.73;;;0.90;;
211;SDS011;16228;48.800;9.002;2022-11-04T03:31:19;3.87;;;1.20;;
211;SDS011;16228;48.800;9.002;2022-11-04T03:33:50;1.83;;;0.97;;
211;SDS011;16228;48.800;9.002;2022-11-04T03:36:18;1.27;;;0.80;;
211;SDS011;16228;48.800;9.002;2022-11-04T03:38:48;2.57;;;1.10;;
211;SDS011;16228;48.800;9.002;2022-11-04T03:41:16;2.00;;;1.13;;
211;SDS011;16228;48.800;9.002;2022-11-04T03:43:47;3.20;;;1.40;;
211;SDS011;16228;48.800;9.002;2022-11-04T03:46:14;3.63;;;1.73;;
211;SDS011;16228;48.800;9.002;2022-11-04T03:48:43;3.03;;;1.70;;
211;SDS011;16228;48.800;9.002;2022-11-04T03:51:11;1.30;;;1.20;;
211;SDS011;16228;48.800;9.002;2022-11-04T03:53:38;2.03;;;1.00;;
211;SDS011;16228;48.800;9.002;2022-11-04T03:59:06;2.43;;;1.40;;
211;SDS011;16228;48.800;9.002;2022-11-04T04:01:44;1.77;;;1.30;;
211;SDS011;16228;48.800;9.002;2022-11-04T04:04:19;2.73;;;1.60;;
211;SDS011;16228;48.800;9.002;2022-11-04T04:06:53;1.43;;;1.00;;
211;SDS011;16228;48.800;9.002;2022-11-04T04:09:25;1.87;;;1.70;;
211;SDS011;16228;48.800;9.002;2022-11-04T04:12:01;2.60;;;1.63;;
211;SDS011;16228;48.800;9.002;2022-11-04T04:14:32;3.83;;;1.73;;
211;SDS011;16228;48.800;9.002;2022-11-04T04:17:06;3.27;;;1.60;;
211;SDS011;16228;48.800;9.002;2022-11-04T04:19:38;1.37;;;1.27;;
211;SDS011;16228;48.800;9.002;2022-11-04T04:22:08;1.40;;;1.10;;
211;SDS011;16228;48.800;9.002;2022-11-04T04:24:40;1.10;;;1.00;;
211;SDS011;16228;48.800;9.002;2022-11-04T04:27:26;3.17;;;1.47;;
211;SDS011;16228;48.800;9.002;2022-11-04T04:29:57;4.23;;;2.53;;
211;SDS011;16228;48.800;9.002;2022-11-04T04:32:25;3.17;;;2.30;;
211;SDS011;16228;48.800;9.002;2022-11-04T04:34:56;2.07;;;1.97;;
211;SDS011;16228;48.800;9.002;2022-11-04T04:37:37;2.70;;;1.70;;
211;SDS011;16228;48.800;9.002;2022-11-04T04:40:07;1.93;;;1.70;;
211;SDS011;16228;48.800;9.002;2022-11-04T04:42:55;1.97;;;1.87;;
211;SDS011;16228;48.800;9.002;2022-11-04T04:45:40;1.77;;;1.27;;
211;SDS011;16228;48.800;9.002;2022-11-04T04:48:10;1.60;;;1.47;;
211;SDS011;16228;48.800;9.002;2022-11-04T04:50:40;3.40;;;1.80;;
211;SDS011;16228;48.800;9.002;2022-11-04T04:53:10;1.43;;;1.33;;
211;SDS011;16228;48.800;9.002;2022-11-04T04:55:37;2.27;;;1.60;;
211;SDS011;16228;48.800;9.002;2022-11-04T04:58:04;1.90;;;1.70;;
211;SDS011;16228;48.800;9.002;2022-11-04T05:00:31;3.47;;;1.83;;
211;SDS011;16228;48.800;9.002;2022-11-04T05:02:58;2.67;;;2.47;;
211;SDS011;16228;48.800;9.002;2022-11-04T05:05:25;2.30;;;2.10;;
211;SDS011;16228;48.800;9.002;2022-11-04T05:07:54;2.30;;;2.10;;
211;SDS011;16228;48.800;9.002;2022-11-04T05:10:21;2.73;;;2.50;;
211;SDS011;16228;48.800;9.002;2022-11-04T05:12:47;3.50;;;3.30;;
211;SDS011;16228;48.800;9.002;2022-11-04T05:15:33;1.60;;;1.50;;
211;SDS011;16228;48.800;9.002;2022-11-04T05:18:00;1.77;;;1.60;;
211;SDS011;16228;48.800;9.002;2022-11-04T05:20:28;2.10;;;1.77;;
211;SDS011;16228;48.800;9.002;2022-11-04T05:22:59;3.73;;;1.50;;
211;SDS011;16228;48.800;9.002;2022-11-04T05:25:26;2.70;;;1.60;;
211;SDS011;16228;48.800;9.002;2022-11-04T05:27:53;2.63;;;2.17;;
211;SDS011;16228;48.800;9.002;2022-11-04T05:30:20;1.80;;;1.70;;
211;SDS011;16228;48.800;9.002;2022-11-04T05:32:47;2.30;;;1.70;;
211;SDS011;16228;48.800;9.002;2022-11-04T05:35:14;2.53;;;1.90;;
211;SDS011;16228;48.800;9.002;2022-11-04T05:37:41;3.73;;;2.50;;
211;SDS011;16228;48.800;9.002;2022-11-04T05:40:10;3.77;;;2.33;;
211;SDS011;16228;48.800;9.002;2022-11-04T05:42:37;3.20;;;2.07;;
211;SDS011;16228;48.800;9.002;2022-11-04T05:45:05;2.07;;;1.60;;
211;SDS011;16228;48.800;9.002;2022-11-04T05:47:33;3.80;;;2.83;;
211;SDS011;16228;48.800;9.002;2022-11-04T05:50:00;2.37;;;2.17;;
211;SDS011;16228;48.800;9.002;2022-11-04T05:52:27;1.80;;;1.70;;
211;SDS011;16228;48.800;9.002;2022-11-04T05:54:54;2.97;;;2.77;;
211;SDS011;16228;48.800;9.002;2022-11-04T05:57:22;3.47;;;3.17;;
211;SDS011;16228;48.800;9.002;2022-11-04T05:59:49;4.63;;;3.73;;
211;SDS011;16228;48.800;9.002;2022-11-04T06:02:16;2.97;;;2.60;;
211;SDS011;16228;48.800;9.002;2022-11-04T06:04:43;2.87;;;2.67;;
211;SDS011;16228;48.800;9.002;2022-11-04T06:07:10;5.50;;;3.37;;
211;SDS011;16228;48.800;9.002;2022-11-04T06:09:37;7.23;;;5.73;;
211;SDS011;16228;48.800;9.002;2022-11-04T06:12:05;5.40;;;4.67;;
211;SDS011;16228;48.800;9.002;2022-11-04T06:14:35;7.60;;;5.23;;
211;SDS011;16228;48.800;9.002;2022-11-04T06:17:02;9.23;;;5.83;;
211;SDS011;16228;48.800;9.002;2022-11-04T06:19:29;5.03;;;4.20;;
211;SDS011;16228;48.800;9.002;2022-11-04T06:21:56;4.20;;;3.50;;
211;SDS011;16228;48.800;9.002;2022-11-04T06:24:24;8.73;;;4.50;;
211;SDS011;16228;48.800;9.002;2022-11-04T06:26:51;3.43;;;3.23;;
211;SDS011;16228;48.800;9.002;2022-11-04T06:29:18;3.10;;;2.90;;
211;SDS011;16228;48.800;9.002;2022-11-04T06:31:46;3.70;;;3.33;;
211;SDS011;16228;48.800;9.002;2022-11-04T06:34:13;5.73;;;4.30;;
211;SDS011;16228;48.800;9.002;2022-11-04T06:36:40;3.87;;;3.57;;
211;SDS011;16228;48.800;9.002;2022-11-04T06:39:07;4.87;;;4.37;;
211;SDS011;16228;48.800;9.002;2022-11-04T06:41:34;3.77;;;3.43;;
211;SDS011;16228;48.800;9.002;2022-11-04T06:44:01;5.23;;;4.80;;
211;SDS011;16228;48.800;9.002;2022-11-04T06:46:30;4.60;;;4.10;;
211;SDS011;16228;48.800;9.002;2022-11-04T06:49:01;5.03;;;3.47;;
211;SDS011;16228;48.800;9.002;2022-11-04T06:51:29;4.10;;;3.70;;
211;SDS011;16228;48.800;9.002;2022-11-04T06:53:56;3.80;;;3.50;;
211;SDS011;16228;48.800;9.002;2022-11-04T06:56:23;3.20;;;2.90;;
211;SDS011;16228;48.800;9.002;2022-11-04T06:58:51;2.63;;;2.43;;
211;SDS011;16228;48.800;9.002;2022-11-04T07:01:20;3.80;;;3.50;;
211;SDS011;16228;48.800;9.002;2022-11-04T07:03:48;3.90;;;3.03;;
211;SDS011;16228;48.800;9.002;2022-11-04T07:06:18;3.53;;;3.20;;
211;SDS011;16228;48.800;9.002;2022-11-04T07:08:45;3.10;;;2.90;;
211;SDS011;16228;48.800;9.002;2022-11-04T07:11:13;2.53;;;1.80;;
211;SDS011;16228;48.800;9.002;2022-11-04T07:13:40;2.70;;;2.20;;
211;SDS011;16228;48.800;9.002;2022-11-04T07:16:07;3.37;;;2.23;;
211;SDS011;16228;48.800;9.002;2022-11-04T07:18:35;3.00;;;1.80;;
211;SDS011;16228;48.800;9.002;2022-11-04T07:21:02;2.87;;;2.63;;
211;SDS011;16228;48.800;9.002;2022-11-04T07:23:31;2.20;;;2.00;;
211;SDS011;16228;48.800;9.002;2022-11-04T07:25:59;3.40;;;2.00;;
211;SDS011;16228;48.800;9.002;2022-11-04T07:28:26;2.43;;;2.00;;
211;SDS011;16228;48.800;9.002;2022-11-04T07:30:54;2.17;;;1.43;;
211;SDS011;16228;48.800;9.002;2022-11-04T07:33:22;3.23;;;1.80;;
211;SDS011;16228;48.800;9.002;2022-11-04T07:35:50;3.20;;;1.87;;
211;SDS011;16228;48.800;9.002;2022-11-04T07:38:18;2.53;;;1.80;;
211;SDS011;16228;48.800;9.002;2022-11-04T07:40:47;2.07;;;1.87;;
211;SDS011;16228;48.800;9.002;2022-11-04T07:43:14;1.97;;;1.50;;
211;SDS011;16228;48.800;9.002;2022-11-04T07:45:41;2.77;;;2.03;;
211;SDS011;16228;48.800;9.002;2022-11-04T07:48:08;1.93;;;1.50;;
211;SDS011;16228;48.800;9.002;2022-11-04T07:50:37;1.97;;;1.70;;
211;SDS011;16228;48.800;9.002;2022-11-04T07:53:05;2.07;;;1.47;;
211;SDS011;16228;48.800;9.002;2022-11-04T07:55:32;2.80;;;1.53;;
211;SDS011;16228;48.800;9.002;2022-11-04T07:58:00;1.80;;;1.40;;
211;SDS011;16228;48.800;9.002;2022-11-04T08:00:28;3.20;;;2.10;;
211;SDS011;16228;48.800;9.002;2022-11-04T08:02:55;2.77;;;1.70;;
211;SDS011;16228;48.800;9.002;2022-11-04T08:05:22;2.20;;;1.83;;
211;SDS011;16228;48.800;9.002;2022-11-04T08:07:49;2.97;;;1.63;;
211;SDS011;16228;48.800;9.002;2022-11-04T08:10:16;2.80;;;1.70;;
211;SDS011;16228;48.800;9.002;2022-11-04T08:12:43;1.77;;;1.40;;
211;SDS011;16228;48.800;9.002;2022-11-04T08:15:13;1.83;;;1.47;;
211;SDS011;16228;48.800;9.002;2022-11-04T08:17:40;3.40;;;1.80;;
211;SDS011;16228;48.800;9.002;2022-11-04T08:20:07;1.77;;;1.33;;
211;SDS011;16228;48.800;9.002;2022-11-04T08:22:36;1.67;;;1.57;;
211;SDS011;16228;48.800;9.002;2022-11-04T08:25:03;2.20;;;1.43;;
211;SDS011;16228;48.800;9.002;2022-11-04T08:27:31;1.70;;;1.47;;
211;SDS011;16228;48.800;9.002;2022-11-04T08:29:59;2.03;;;1.03;;
211;SDS011;16228;48.800;9.002;2022-11-04T08:32:28;1.00;;;0.90;;
211;SDS011;16228;48.800;9.002;2022-11-04T08:34:55;2.57;;;1.20;;
211;SDS011;16228;48.800;9.002;2022-11-04T08:37:22;1.27;;;1.00;;
211;SDS011;16228;48.800;9.002;2022-11-04T08:39:49;2.90;;;1.17;;
211;SDS011;16228;48.800;9.002;2022-11-04T08:42:16;3.43;;;1.00;;
211;SDS011;16228;48.800;9.002;2022-11-04T08:44:44;4.10;;;0.90;;
211;SDS011;16228;48.800;9.002;2022-11-04T08:47:11;1.60;;;1.00;;
211;SDS011;16228;48.800;9.002;2022-11-04T08:49:40;1.30;;;0.70;;
211;SDS011;16228;48.800;9.002;2022-11-04T08:52:07;1.53;;;0.77;;
211;SDS011;16228;48.800;9.002;2022-11-04T08:54:34;2.47;;;0.60;;
211;SDS011;16228;48.800;9.002;2022-11-04T08:57:01;1.73;;;0.80;;
211;SDS011;16228;48.800;9.002;2022-11-04T08:59:29;1.63;;;0.90;;
211;SDS011;16228;48.800;9.002;2022-11-04T09:01:56;2.50;;;0.80;;
211;SDS011;16228;48.800;9.002;2022-11-04T09:04:23;1.93;;;0.70;;
211;SDS011;16228;48.800;9.002;2022-11-04T09:06:51;2.30;;;1.03;;
211;SDS011;16228;48.800;9.002;2022-11-04T09:09:20;2.87;;;0.80;;
211;SDS011;16228;48.800;9.002;2022-11-04T09:11:47;0.80;;;0.60;;
211;SDS011;16228;48.800;9.002;2022-11-04T09:14:14;3.23;;;0.70;;
211;SDS011;16228;48.800;9.002;2022-11-04T09:16:42;2.70;;;0.97;;
211;SDS011;16228;48.800;9.002;2022-11-04T09:19:09;1.77;;;0.80;;
211;SDS011;16228;48.800;9.002;2022-11-04T09:21:36;2.67;;;0.83;;
211;SDS011;16228;48.800;9.002;2022-11-04T09:24:04;1.33;;;0.73;;
211;SDS011;16228;48.800;9.002;2022-11-04T09:26:33;4.20;;;0.90;;
211;SDS011;16228;48.800;9.002;2022-11-04T09:29:00;4.20;;;0.97;;
211;SDS011;16228;48.800;9.002;2022-11-04T09:31:28;2.50;;;0.97;;
211;SDS011;16228;48.800;9.002;2022-11-04T09:33:56;3.43;;;0.90;;
211;SDS011;16228;48.800;9.002;2022-11-04T09:36:23;3.03;;;1.10;;
211;SDS011;16228;48.800;9.002;2022-11-04T09:38:50;3.60;;;0.87;;
211;SDS011;16228;48.800;9.002;2022-11-04T09:41:31;3.37;;;0.83;;
211;SDS011;16228;48.800;9.002;2022-11-04T09:44:21;1.33;;;0.90;;
211;SDS011;16228;48.800;9.002;2022-11-04T09:46:51;6.10;;;1.00;;
211;SDS011;16228;48.800;9.002;2022-11-04T09:49:22;2.57;;;0.90;;
211;SDS011;16228;48.800;9.002;2022-11-04T09:51:52;3.57;;;0.93;;
211;SDS011;16228;48.800;9.002;2022-11-04T09:54:22;2.13;;;1.10;;
211;SDS011;16228;48.800;9.002;2022-11-04T09:56:52;3.07;;;0.80;;
211;SDS011;16228;48.800;9.002;2022-11-04T09:59:23;2.27;;;0.70;;
211;SDS011;16228;48.800;9.002;2022-11-04T10:01:59;2.40;;;0.80;;
211;SDS011;16228;48.800;9.002;2022-11-04T10:04:37;2.80;;;0.97;;
211;SDS011;16228;48.800;9.002;2022-11-04T10:07:19;2.37;;;0.83;;
211;SDS011;16228;48.800;9.002;2022-11-04T10:09:56;5.73;;;1.30;;
211;SDS011;16228;48.800;9.002;2022-11-04T10:12:43;1.70;;;1.00;;
211;SDS011;16228;48.800;9.002;2022-11-04T10:18:47;2.20;;;0.80;;
211;SDS011;16228;48.800;9.002;2022-11-04T10:21:40;4.07;;;0.80;;
211;SDS011;16228;48.800;9.002;2022-11-04T10:24:16;3.10;;;0.97;;
211;SDS011;16228;48.800;9.002;2022-11-04T10:26:46;3.83;;;0.80;;
211;SDS011;16228;48.800;9.002;2022-11-04T10:29:18;2.63;;;0.97;;
211;SDS011;16228;48.800;9.002;2022-11-04T10:31:53;1.73;;;1.43;;
211;SDS011;16228;48.800;9.002;2022-11-04T10:34:26;1.63;;;0.57;;
211;SDS011;16228;48.800;9.002;2022-11-04T10:36:58;1.63;;;0.80;;
211;SDS011;16228;48.800;9.002;2022-11-04T10:39:26;3.33;;;0.87;;
211;SDS011;16228;48.800;9.002;2022-11-04T10:41:55;1.50;;;0.83;;
211;SDS011;16228;48.800;9.002;2022-11-04T10:44:25;3.10;;;0.93;;
211;SDS011;16228;48.800;9.002;2022-11-04T10:46:58;3.37;;;1.03;;
211;SDS011;16228;48.800;9.002;2022-11-04T10:49:37;3.30;;;1.00;;
211;SDS011;16228;48.800;9.002;2022-11-04T10:52:14;5.57;;;1.20;;
211;SDS011;16228;48.800;9.002;2022-11-04T10:54:42;3.20;;;1.00;;
211;SDS011;16228;48.800;9.002;2022-11-04T10:57:11;1.63;;;0.90;;
211;SDS011;16228;48.800;9.002;2022-11-04T10:59:47;2.43;;;0.80;;
211;SDS011;16228;48.800;9.002;2022-11-04T11:02:17;2.53;;;1.00;;
211;SDS011;16228;48.800;9.002;2022-11-04T11:05:12;4.30;;;1.20;;
211;SDS011;16228;48.800;9.002;2022-11-04T11:07:41;4.80;;;1.53;;
211;SDS011;16228;48.800;9.002;2022-11-04T11:10:15;2.83;;;0.97;;
211;SDS011;16228;48.800;9.002;2022-11-04T11:12:49;3.63;;;1.00;;
211;SDS011;16228;48.800;9.002;2022-11-04T11:15:25;3.00;;;0.90;;
211;SDS011;16228;48.800;9.002;2022-11-04T11:20:41;2.90;;;0.80;;
211;SDS011;16228;48.800;9.002;2022-11-04T11:23:33;4.90;;;1.13;;
211;SDS011;16228;48.800;9.002;2022-11-04T11:26:07;3.33;;;1.43;;
211;SDS011;16228;48.800;9.002;2022-11-04T11:28:37;2.07;;;0.97;;
211;SDS011;16228;48.800;9.002;2022-11-04T11:31:07;4.33;;;1.00;;
211;SDS011;16228;48.800;9.002;2022-11-04T11:33:45;3.17;;;0.93;;
211;SDS011;16228;48.800;9.002;2022-11-04T11:36:16;3.03;;;1.00;;
211;SDS011;16228;48.800;9.002;2022-11-04T11:38:56;4.87;;;1.30;;
211;SDS011;16228;48.800;9.002;2022-11-04T11:41:30;3.83;;;1.43;;
211;SDS011;16228;48.800;9.002;2022-11-04T11:44:00;3.03;;;1.23;;
211;SDS011;16228;48.800;9.002;2022-11-04T11:46:32;4.97;;;1.40;;
211;SDS011;16228;48.800;9.002;2022-11-04T11:49:03;5.37;;;1.10;;
211;SDS011;16228;48.800;9.002;2022-11-04T11:51:32;2.90;;;1.13;;
211;SDS011;16228;48.800;9.002;2022-11-04T11:54:18;3.40;;;1.20;;
211;SDS011;16228;48.800;9.002;2022-11-04T11:56:51;2.13;;;1.00;;
211;SDS011;16228;48.800;9.002;2022-11-04T11:59:31;2.97;;;1.10;;
211;SDS011;16228;48.800;9.002;2022-11-04T12:02:24;5.17;;;1.30;;
211;SDS011;16228;48.800;9.002;2022-11-04T12:04:58;2.13;;;0.97;;
211;SDS011;16228;48.800;9.002;2022-11-04T12:07:28;1.97;;;1.03;;
211;SDS011;16228;48.800;9.002;2022-11-04T12:10:05;2.67;;;0.90;;
211;SDS011;16228;48.800;9.002;2022-11-04T12:12:42;4.20;;;0.97;;
211;SDS011;16228;48.800;9.002;2022-11-04T12:15:22;3.37;;;0.90;;
211;SDS011;16228;48.800;9.002;2022-11-04T12:20:59;5.17;;;1.00;;
211;SDS011;16228;48.800;9.002;2022-11-04T12:23:34;2.80;;;1.00;;
211;SDS011;16228;48.800;9.002;2022-11-04T12:26:08;3.53;;;1.10;;
211;SDS011;16228;48.800;9.002;2022-11-04T12:28:43;2.60;;;1.20;;
211;SDS011;16228;48.800;9.002;2022-11-04T12:31:31;2.43;;;1.00;;
211;SDS011;16228;48.800;9.002;2022-11-04T12:34:10;3.10;;;1.17;;
211;SDS011;16228;48.800;9.002;2022-11-04T12:36:58;2.40;;;0.90;;
211;SDS011;16228;48.800;9.002;2022-11-04T12:39:43;2.83;;;1.00;;
211;SDS011;16228;48.800;9.002;2022-11-04T12:42:33;1.67;;;0.80;;
211;SDS011;16228;48.800;9.002;2022-11-04T12:45:11;2.07;;;0.77;;
211;SDS011;16228;48.800;9.002;2022-11-04T12:47:49;2.70;;;1.00;;
211;SDS011;16228;48.800;9.002;2022-11-04T12:50:31;2.97;;;1.27;;
211;SDS011;16228;48.800;9.002;2022-11-04T12:56:06;2.90;;;1.40;;
211;SDS011;16228;48.800;9.002;2022-11-04T12:58:41;2.53;;;1.30;;
211;SDS011;16228;48.800;9.002;2022-11-04T13:01:20;3.37;;;1.60;;
211;SDS011;16228;48.800;9.002;2022-11-04T13:03:51;3.10;;;1.50;;
211;SDS011;16228;48.800;9.002;2022-11-04T13:06:24;6.70;;;1.20;;
211;SDS011;16228;48.800;9.002;2022-11-04T13:08:55;2.83;;;1.90;;
211;SDS011;16228;48.800;9.002;2022-11-04T13:11:27;0.93;;;0.57;;
211;SDS011;16228;48.800;9.002;2022-11-04T13:13:58;1.23;;;0.70;;
211;SDS011;16228;48.800;9.002;2022-11-04T13:16:30;1.23;;;0.73;;
211;SDS011;16228;48.800;9.002;2022-11-04T13:19:02;2.23;;;0.97;;
211;SDS011;16228;48.800;9.002;2022-11-04T13:21:34;4.80;;;1.40;;
211;SDS011;16228;48.800;9.002;2022-11-04T13:24:03;3.20;;;1.20;;
211;SDS011;16228;48.800;9.002;2022-11-04T13:26:38;2.47;;;1.10;;
211;SDS011;16228;48.800;9.002;2022-11-04T13:29:06;2.80;;;1.10;;
211;SDS011;16228;48.800;9.002;2022-11-04T13:31:43;0.80;;;0.80;;
211;SDS011;16228;48.800;9.002;2022-11-04T13:34:17;2.60;;;1.13;;
211;SDS011;16228;48.800;9.002;2022-11-04T13:37:01;1.50;;;1.40;;
211;SDS011;16228;48.800;9.002;2022-11-04T13:39:38;4.27;;;1.33;;
211;SDS011;16228;48.800;9.002;2022-11-04T13:42:21;1.60;;;1.10;;
211;SDS011;16228;48.800;9.002;2022-11-04T13:45:10;3.03;;;1.17;;
211;SDS011;16228;48.800;9.002;2022-11-04T13:47:43;3.60;;;1.30;;
211;SDS011;16228;48.800;9.002;2022-11-04T13:50:27;1.97;;;1.23;;
211;SDS011;16228;48.800;9.002;2022-11-04T13:53:01;1.70;;;0.97;;
211;SDS011;16228;48.800;9.002;2022-11-04T13:55:28;3.33;;;1.27;;
211;SDS011;16228;48.800;9.002;2022-11-04T13:57:56;2.40;;;1.70;;
211;SDS011;16228;48.800;9.002;2022-11-04T14:00:25;3.20;;;1.70;;
211;SDS011;16228;48.800;9.002;2022-11-04T14:02:53;2.87;;;1.30;;
211;SDS011;16228;48.800;9.002;2022-11-04T14:08:28;1.23;;;1.10;;
211;SDS011;16228;48.800;9.002;2022-11-04T14:11:01;1.97;;;1.40;;
211;SDS011;16228;48.800;9.002;2022-11-04T14:13:50;3.43;;;1.10;;
211;SDS011;16228;48.800;9.002;2022-11-04T14:16:38;0.90;;;0.87;;
211;SDS011;16228;48.800;9.002;2022-11-04T14:22:20;2.13;;;1.23;;
211;SDS011;16228;48.800;9.002;2022-11-04T14:24:54;3.07;;;1.20;;
211;SDS011;16228;48.800;9.002;2022-11-04T14:27:26;1.43;;;1.30;;
211;SDS011;16228;48.800;9.002;2022-11-04T14:29:59;2.60;;;1.23;;
211;SDS011;16228;48.800;9.002;2022-11-04T14:32:29;1.97;;;1.30;;
211;SDS011;16228;48.800;9.002;2022-11-04T14:35:00;1.87;;;1.37;;
211;SDS011;16228;48.800;9.002;2022-11-04T14:37:30;1.50;;;1.13;;
211;SDS011;16228;48.800;9.002;2022-11-04T14:40:02;2.70;;;1.20;;
211;SDS011;16228;48.800;9.002;2022-11-04T14:42:47;2.83;;;1.17;;
211;SDS011;16228;48.800;9.002;2022-11-04T14:45:17;2.97;;;1.17;;
211;SDS011;16228;48.800;9.002;2022-11-04T14:47:48;2.47;;;1.37;;
211;SDS011;16228;48.800;9.002;2022-11-04T14:50:20;2.47;;;1.20;;
211;SDS011;16228;48.800;9.002;2022-11-04T14:52:50;2.40;;;1.03;;
211;SDS011;16228;48.800;9.002;2022-11-04T14:55:22;1.70;;;1.20;;
211;SDS011;16228;48.800;9.002;2022-11-04T14:57:51;2.60;;;1.20;;
211;SDS011;16228;48.800;9.002;2022-11-04T15:00:26;1.83;;;1.10;;
211;SDS011;16228;48.800;9.002;2022-11-04T15:02:59;1.60;;;1.00;;
211;SDS011;16228;48.800;9.002;2022-11-04T15:05:45;1.77;;;1.20;;
211;SDS011;16228;48.800;9.002;2022-11-04T15:08:26;1.63;;;1.30;;
211;SDS011;16228;48.800;9.002;2022-11-04T15:10:58;2.40;;;1.50;;
211;SDS011;16228;48.800;9.002;2022-11-04T15:13:27;1.67;;;1.10;;
211;SDS011;16228;48.800;9.002;2022-11-04T15:15:57;3.33;;;1.33;;
211;SDS011;16228;48.800;9.002;2022-11-04T15:18:26;2.83;;;1.33;;
211;SDS011;16228;48.800;9.002;2022-11-04T15:20:55;1.73;;;1.43;;
211;SDS011;16228;48.800;9.002;2022-11-04T15:23:25;2.43;;;1.30;;
211;SDS011;16228;48.800;9.002;2022-11-04T15:25:54;1.40;;;1.30;;
211;SDS011;16228;48.800;9.002;2022-11-04T15:28:24;3.53;;;1.20;;
211;SDS011;16228;48.800;9.002;2022-11-04T15:30:58;1.90;;;1.40;;
211;SDS011;16228;48.800;9.002;2022-11-04T15:33:28;3.07;;;1.50;;
211;SDS011;16228;48.800;9.002;2022-11-04T15:35:58;2.60;;;1.30;;
211;SDS011;16228;48.800;9.002;2022-11-04T15:38:25;2.23;;;1.30;;
211;SDS011;16228;48.800;9.002;2022-11-04T15:40:54;2.10;;;1.30;;
211;SDS011;16228;48.800;9.002;2022-11-04T15:43:43;1.83;;;1.30;;
211;SDS011;16228;48.800;9.002;2022-11-04T15:46:15;2.43;;;1.37;;
211;SDS011;16228;48.800;9.002;2022-11-04T15:48:58;1.57;;;1.10;;
211;SDS011;16228;48.800;9.002;2022-11-04T15:51:26;1.53;;;1.13;;
211;SDS011;16228;48.800;9.002;2022-11-04T15:53:56;1.50;;;1.20;;
211;SDS011;16228;48.800;9.002;2022-11-04T15:56:26;2.10;;;1.30;;
211;SDS011;16228;48.800;9.002;2022-11-04T15:58:55;1.90;;;1.13;;
211;SDS011;16228;48.800;9.002;2022-11-04T16:01:23;2.33;;;1.20;;
211;SDS011;16228;48.800;9.002;2022-11-04T16:03:53;2.23;;;1.20;;
211;SDS011;16228;48.800;9.002;2022-11-04T16:06:32;1.43;;;1.17;;